sensor_id;sensor_type;location;lat;lon;timestamp;temperature;humidity
5278;DHT22;2662;51.194;6.614;2024-02-04T00:02:05;11.40;99.90
5278;DHT22;2662;51.194;6.614;2024-02-04T00:04:35;11.40;99.90
5278;DHT22;2662;51.194;6.614;2024-02-04T00:07:02;11.50;99.90
5278;DHT22;2662;51.194;6.614;2024-02-04T00:09:29;11.50;99.90
5278;DHT22;2662;51.194;6.614;2024-02-04T00:12:00;11.50;99.90
5278;DHT22;2662;51.194;6.614;2024-02-04T00:14:30;11.40;99.90
5278;DHT22;2662;51.194;6.614;2024-02-04T00:16:58;11.40;99.90
5278;DHT22;2662;51.194;6.614;2024-02-04T00:19:25;11.30;99.90
5278;DHT22;2662;51.194;6.614;2024-02-04T00:21:55;11.30;99.90
5278;DHT22;2662;51.194;6.614;2024-02-04T00:24:22;11.30;99.90
5278;DHT22;2662;51.194;6.614;2024-02-04T00:26:52;11.30;99.90
5278;DHT22;2662;51.194;6.614;2024-02-04T00:29:24;11.40;99.90
5278;DHT22;2662;51.194;6.614;2024-02-04T00:32:04;11.30;99.90
5278;DHT22;2662;51.194;6.614;2024-02-04T00:34:31;11.40;99.90
5278;DHT22;2662;51.194;6.614;2024-02-04T00:36:58;11.40;99.90
5278;DHT22;2662;51.194;6.614;2024-02-04T00:39:26;11.30;99.90
5278;DHT22;2662;51.194;6.614;2024-02-04T00:41:56;11.30;99.90
5278;DHT22;2662;51.194;6.614;2024-02-04T00:44:25;11.40;99.90
5278;DHT22;2662;51.194;6.614;2024-02-04T00:46:54;11.30;99.90
5278;DHT22;2662;51.194;6.614;2024-02-04T00:49:21;11.30;99.90
5278;DHT22;2662;51.194;6.614;2024-02-04T00:51:49;11.30;99.90
5278;DHT22;2662;51.194;6.614;2024-02-04T00:54:16;11.30;99.90
5278;DHT22;2662;51.194;6.614;2024-02-04T00:56:43;11.30;99.90
5278;DHT22;2662;51.194;6.614;2024-02-04T00:59:10;11.30;99.90
5278;DHT22;2662;51.194;6.614;2024-02-04T01:01:42;11.30;99.90
5278;DHT22;2662;51.194;6.614;2024-02-04T01:04:11;11.30;99.90
5278;DHT22;2662;51.194;6.614;2024-02-04T01:06:51;11.20;99.90
5278;DHT22;2662;51.194;6.614;2024-02-04T01:09:21;11.20;99.90
5278;DHT22;2662;51.194;6.614;2024-02-04T01:11:48;11.20;99.90
5278;DHT22;2662;51.194;6.614;2024-02-04T01:14:15;11.20;99.90
5278;DHT22;2662;51.194;6.614;2024-02-04T01:16:45;11.30;99.90
5278;DHT22;2662;51.194;6.614;2024-02-04T01:19:12;11.30;99.90
5278;DHT22;2662;51.194;6.614;2024-02-04T01:21:39;11.30;99.90
5278;DHT22;2662;51.194;6.614;2024-02-04T01:24:06;11.30;99.90
5278;DHT22;2662;51.194;6.614;2024-02-04T01:26:34;11.30;99.90
5278;DHT22;2662;51.194;6.614;2024-02-04T01:29:02;11.30;99.90
5278;DHT22;2662;51.194;6.614;2024-02-04T01:31:29;11.30;99.90
5278;DHT22;2662;51.194;6.614;2024-02-04T01:33:58;11.30;99.90
5278;DHT22;2662;51.194;6.614;2024-02-04T01:36:24;11.30;99.90
5278;DHT22;2662;51.194;6.614;2024-02-04T01:38:51;11.30;99.90
5278;DHT22;2662;51.194;6.614;2024-02-04T01:41:18;11.40;99.90
5278;DHT22;2662;51.194;6.614;2024-02-04T01:43:49;11.40;99.90
5278;DHT22;2662;51.194;6.614;2024-02-04T01:46:19;11.30;99.90
5278;DHT22;2662;51.194;6.614;2024-02-04T01:48:46;11.40;99.90
5278;DHT22;2662;51.194;6.614;2024-02-04T01:51:18;11.30;99.90
5278;DHT22;2662;51.194;6.614;2024-02-04T01:53:49;11.30;99.90
5278;DHT22;2662;51.194;6.614;2024-02-04T01:56:17;11.40;99.90
5278;DHT22;2662;51.194;6.614;2024-02-04T01:58:45;11.40;99.90
5278;DHT22;2662;51.194;6.614;2024-02-04T02:01:14;11.40;99.90
5278;DHT22;2662;51.194;6.614;2024-02-04T02:03:41;11.40;99.90
5278;DHT22;2662;51.194;6.614;2024-02-04T02:06:09;11.40;99.90
5278;DHT22;2662;51.194;6.614;2024-02-04T02:08:38;11.40;99.90
5278;DHT22;2662;51.194;6.614;2024-02-04T02:11:11;11.40;99.90
5278;DHT22;2662;51.194;6.614;2024-02-04T02:13:41;11.50;99.90
5278;DHT22;2662;51.194;6.614;2024-02-04T02:16:13;11.50;99.90
5278;DHT22;2662;51.194;6.614;2024-02-04T02:18:48;11.50;99.90
5278;DHT22;2662;51.194;6.614;2024-02-04T02:21:26;11.40;99.90
5278;DHT22;2662;51.194;6.614;2024-02-04T02:24:04;11.40;99.90
5278;DHT22;2662;51.194;6.614;2024-02-04T02:26:38;11.40;99.90
5278;DHT22;2662;51.194;6.614;2024-02-04T02:29:07;11.50;99.90
5278;DHT22;2662;51.194;6.614;2024-02-04T02:31:37;11.40;99.90
5278;DHT22;2662;51.194;6.614;2024-02-04T02:34:05;11.50;99.90
5278;DHT22;2662;51.194;6.614;2024-02-04T02:36:36;11.50;99.90
5278;DHT22;2662;51.194;6.614;2024-02-04T02:39:09;11.50;99.90
5278;DHT22;2662;51.194;6.614;2024-02-04T02:41:42;11.50;99.90
5278;DHT22;2662;51.194;6.614;2024-02-04T02:44:11;11.50;99.90
5278;DHT22;2662;51.194;6.614;2024-02-04T02:46:42;11.50;99.90
5278;DHT22;2662;51.194;6.614;2024-02-04T02:49:10;11.60;99.90
5278;DHT22;2662;51.194;6.614;2024-02-04T02:51:39;11.50;99.90
5278;DHT22;2662;51.194;6.614;2024-02-04T02:54:09;11.50;99.90
5278;DHT22;2662;51.194;6.614;2024-02-04T02:56:37;11.50;99.90
5278;DHT22;2662;51.194;6.614;2024-02-04T02:59:06;11.60;99.90
5278;DHT22;2662;51.194;6.614;2024-02-04T03:01:38;11.60;99.90
5278;DHT22;2662;51.194;6.614;2024-02-04T03:04:06;11.50;99.90
5278;DHT22;2662;51.194;6.614;2024-02-04T03:06:34;11.60;99.90
5278;DHT22;2662;51.194;6.614;2024-02-04T03:09:02;11.50;99.90
5278;DHT22;2662;51.194;6.614;2024-02-04T03:11:29;11.60;99.90
5278;DHT22;2662;51.194;6.614;2024-02-04T03:13:58;11.60;99.90
5278;DHT22;2662;51.194;6.614;2024-02-04T03:16:29;11.60;99.90
5278;DHT22;2662;51.194;6.614;2024-02-04T03:18:56;11.60;99.90
5278;DHT22;2662;51.194;6.614;2024-02-04T03:21:27;11.60;99.90
5278;DHT22;2662;51.194;6.614;2024-02-04T03:23:56;11.60;99.90
5278;DHT22;2662;51.194;6.614;2024-02-04T03:26:24;11.50;99.90
5278;DHT22;2662;51.194;6.614;2024-02-04T03:28:51;11.50;99.90
5278;DHT22;2662;51.194;6.614;2024-02-04T03:31:22;11.50;99.90
5278;DHT22;2662;51.194;6.614;2024-02-04T03:33:50;11.50;99.90
5278;DHT22;2662;51.194;6.614;2024-02-04T03:36:19;11.50;99.90
5278;DHT22;2662;51.194;6.614;2024-02-04T03:38:46;11.50;99.90
5278;DHT22;2662;51.194;6.614;2024-02-04T03:41:13;11.50;99.90
5278;DHT22;2662;51.194;6.614;2024-02-04T03:43:42;11.50;99.90
5278;DHT22;2662;51.194;6.614;2024-02-04T03:46:16;11.50;99.90
5278;DHT22;2662;51.194;6.614;2024-02-04T03:48:45;11.50;99.90
5278;DHT22;2662;51.194;6.614;2024-02-04T03:51:16;11.60;99.90
5278;DHT22;2662;51.194;6.614;2024-02-04T03:53:42;11.60;99.90
5278;DHT22;2662;51.194;6.614;2024-02-04T03:56:09;11.60;99.90
5278;DHT22;2662;51.194;6.614;2024-02-04T03:58:36;11.60;99.90
5278;DHT22;2662;51.194;6.614;2024-02-04T04:01:04;11.60;99.90
5278;DHT22;2662;51.194;6.614;2024-02-04T04:03:31;11.60;99.90
5278;DHT22;2662;51.194;6.614;2024-02-04T04:05:59;11.60;99.90
5278;DHT22;2662;51.194;6.614;2024-02-04T04:08:27;11.60;99.90
5278;DHT22;2662;51.194;6.614;2024-02-04T04:10:56;11.60;99.90
5278;DHT22;2662;51.194;6.614;2024-02-04T04:13:23;11.60;99.90
5278;DHT22;2662;51.194;6.614;2024-02-04T04:15:51;11.60;99.90
5278;DHT22;2662;51.194;6.614;2024-02-04T04:18:18;11.60;99.90
5278;DHT22;2662;51.194;6.614;2024-02-04T04:20:45;11.60;99.90
5278;DHT22;2662;51.194;6.614;2024-02-04T04:23:12;11.70;99.90
5278;DHT22;2662;51.194;6.614;2024-02-04T04:25:41;11.60;99.90
5278;DHT22;2662;51.194;6.614;2024-02-04T04:28:10;11.60;99.90
5278;DHT22;2662;51.194;6.614;2024-02-04T04:30:37;11.70;99.90
5278;DHT22;2662;51.194;6.614;2024-02-04T04:33:05;11.70;99.90
5278;DHT22;2662;51.194;6.614;2024-02-04T04:35:35;11.70;99.90
5278;DHT22;2662;51.194;6.614;2024-02-04T04:38:04;11.70;99.90
5278;DHT22;2662;51.194;6.614;2024-02-04T04:40:34;11.70;99.90
5278;DHT22;2662;51.194;6.614;2024-02-04T04:43:03;11.70;99.90
5278;DHT22;2662;51.194;6.614;2024-02-04T04:45:31;11.60;99.90
5278;DHT22;2662;51.194;6.614;2024-02-04T04:47:59;11.60;99.90
5278;DHT22;2662;51.194;6.614;2024-02-04T04:50:27;11.60;99.90
5278;DHT22;2662;51.194;6.614;2024-02-04T04:53:02;11.60;99.90
5278;DHT22;2662;51.194;6.614;2024-02-04T04:55:29;11.60;99.90
5278;DHT22;2662;51.194;6.614;2024-02-04T04:57:56;11.60;99.90
5278;DHT22;2662;51.194;6.614;2024-02-04T05:00:24;11.60;99.90
5278;DHT22;2662;51.194;6.614;2024-02-04T05:02:51;11.60;99.90
5278;DHT22;2662;51.194;6.614;2024-02-04T05:05:20;11.70;99.90
5278;DHT22;2662;51.194;6.614;2024-02-04T05:07:47;11.60;99.90
5278;DHT22;2662;51.194;6.614;2024-02-04T05:10:16;11.60;99.90
5278;DHT22;2662;51.194;6.614;2024-02-04T05:12:44;11.60;99.90
5278;DHT22;2662;51.194;6.614;2024-02-04T05:15:11;11.50;99.90
5278;DHT22;2662;51.194;6.614;2024-02-04T05:17:41;11.60;99.90
5278;DHT22;2662;51.194;6.614;2024-02-04T05:20:08;11.50;99.90
5278;DHT22;2662;51.194;6.614;2024-02-04T05:22:36;11.50;99.90
5278;DHT22;2662;51.194;6.614;2024-02-04T05:25:03;11.50;99.90
5278;DHT22;2662;51.194;6.614;2024-02-04T05:27:31;11.50;99.90
5278;DHT22;2662;51.194;6.614;2024-02-04T05:29:58;11.50;99.90
5278;DHT22;2662;51.194;6.614;2024-02-04T05:32:25;11.50;99.90
5278;DHT22;2662;51.194;6.614;2024-02-04T05:34:53;11.60;99.90
5278;DHT22;2662;51.194;6.614;2024-02-04T05:37:21;11.60;99.90
5278;DHT22;2662;51.194;6.614;2024-02-04T05:39:49;11.60;99.90
5278;DHT22;2662;51.194;6.614;2024-02-04T05:42:17;11.60;99.90
5278;DHT22;2662;51.194;6.614;2024-02-04T05:44:44;11.70;99.90
5278;DHT22;2662;51.194;6.614;2024-02-04T05:47:11;11.70;99.90
5278;DHT22;2662;51.194;6.614;2024-02-04T05:49:38;11.70;99.90
5278;DHT22;2662;51.194;6.614;2024-02-04T05:52:07;11.70;99.90
5278;DHT22;2662;51.194;6.614;2024-02-04T05:54:37;11.70;99.90
5278;DHT22;2662;51.194;6.614;2024-02-04T05:57:05;11.70;99.90
5278;DHT22;2662;51.194;6.614;2024-02-04T05:59:32;11.70;99.90
5278;DHT22;2662;51.194;6.614;2024-02-04T06:02:00;11.70;99.90
5278;DHT22;2662;51.194;6.614;2024-02-04T06:04:29;11.70;99.90
5278;DHT22;2662;51.194;6.614;2024-02-04T06:06:57;11.70;99.90
5278;DHT22;2662;51.194;6.614;2024-02-04T06:09:25;11.70;99.90
5278;DHT22;2662;51.194;6.614;2024-02-04T06:11:52;11.70;99.90
5278;DHT22;2662;51.194;6.614;2024-02-04T06:14:19;11.70;99.90
5278;DHT22;2662;51.194;6.614;2024-02-04T06:16:46;11.70;99.90
5278;DHT22;2662;51.194;6.614;2024-02-04T06:19:16;11.80;99.90
5278;DHT22;2662;51.194;6.614;2024-02-04T06:21:43;11.80;99.90
5278;DHT22;2662;51.194;6.614;2024-02-04T06:24:10;11.80;99.90
5278;DHT22;2662;51.194;6.614;2024-02-04T06:26:39;11.80;99.90
5278;DHT22;2662;51.194;6.614;2024-02-04T06:29:07;11.80;99.90
5278;DHT22;2662;51.194;6.614;2024-02-04T06:31:34;11.80;99.90
5278;DHT22;2662;51.194;6.614;2024-02-04T06:34:01;11.80;99.90
5278;DHT22;2662;51.194;6.614;2024-02-04T06:36:29;11.80;99.90
5278;DHT22;2662;51.194;6.614;2024-02-04T06:38:56;11.80;99.90
5278;DHT22;2662;51.194;6.614;2024-02-04T06:41:23;11.80;99.90
5278;DHT22;2662;51.194;6.614;2024-02-04T06:43:51;11.80;99.90
5278;DHT22;2662;51.194;6.614;2024-02-04T06:46:26;11.80;99.90
5278;DHT22;2662;51.194;6.614;2024-02-04T06:48:57;11.80;99.90
5278;DHT22;2662;51.194;6.614;2024-02-04T06:51:24;11.80;99.90
5278;DHT22;2662;51.194;6.614;2024-02-04T06:53:53;11.80;99.90
5278;DHT22;2662;51.194;6.614;2024-02-04T06:56:20;11.80;99.90
5278;DHT22;2662;51.194;6.614;2024-02-04T06:58:47;11.80;99.90
5278;DHT22;2662;51.194;6.614;2024-02-04T07:01:15;11.80;99.90
5278;DHT22;2662;51.194;6.614;2024-02-04T07:03:42;11.80;99.90
5278;DHT22;2662;51.194;6.614;2024-02-04T07:06:11;11.80;99.90
5278;DHT22;2662;51.194;6.614;2024-02-04T07:08:38;11.80;99.90
5278;DHT22;2662;51.194;6.614;2024-02-04T07:11:06;11.80;99.90
5278;DHT22;2662;51.194;6.614;2024-02-04T07:13:33;11.80;99.90
5278;DHT22;2662;51.194;6.614;2024-02-04T07:16:00;11.70;99.90
5278;DHT22;2662;51.194;6.614;2024-02-04T07:18:30;11.70;99.90
5278;DHT22;2662;51.194;6.614;2024-02-04T07:20:59;11.70;99.90
5278;DHT22;2662;51.194;6.614;2024-02-04T07:23:26;11.70;99.90
5278;DHT22;2662;51.194;6.614;2024-02-04T07:25:53;11.70;99.90
5278;DHT22;2662;51.194;6.614;2024-02-04T07:28:20;11.70;99.90
5278;DHT22;2662;51.194;6.614;2024-02-04T07:30:47;11.70;99.90
5278;DHT22;2662;51.194;6.614;2024-02-04T07:33:14;11.70;99.90
5278;DHT22;2662;51.194;6.614;2024-02-04T07:35:42;11.70;99.90
5278;DHT22;2662;51.194;6.614;2024-02-04T07:38:10;11.70;99.90
5278;DHT22;2662;51.194;6.614;2024-02-04T07:40:38;11.70;99.90
5278;DHT22;2662;51.194;6.614;2024-02-04T07:43:05;11.70;99.90
5278;DHT22;2662;51.194;6.614;2024-02-04T07:45:34;11.70;99.90
5278;DHT22;2662;51.194;6.614;2024-02-04T07:48:04;11.70;99.90
5278;DHT22;2662;51.194;6.614;2024-02-04T07:50:31;11.70;99.90
5278;DHT22;2662;51.194;6.614;2024-02-04T07:52:59;11.80;99.90
5278;DHT22;2662;51.194;6.614;2024-02-04T07:55:26;11.70;99.90
5278;DHT22;2662;51.194;6.614;2024-02-04T07:57:53;11.70;99.90
5278;DHT22;2662;51.194;6.614;2024-02-04T08:00:21;11.70;99.90
5278;DHT22;2662;51.194;6.614;2024-02-04T08:02:49;11.70;99.90
5278;DHT22;2662;51.194;6.614;2024-02-04T08:05:16;11.70;99.90
5278;DHT22;2662;51.194;6.614;2024-02-04T08:07:44;11.70;99.90
5278;DHT22;2662;51.194;6.614;2024-02-04T08:10:13;11.80;99.90
5278;DHT22;2662;51.194;6.614;2024-02-04T08:12:40;11.80;99.90
5278;DHT22;2662;51.194;6.614;2024-02-04T08:15:09;11.80;99.90
5278;DHT22;2662;51.194;6.614;2024-02-04T08:17:38;11.80;99.90
5278;DHT22;2662;51.194;6.614;2024-02-04T08:20:08;11.80;99.90
5278;DHT22;2662;51.194;6.614;2024-02-04T08:22:35;11.80;99.90
5278;DHT22;2662;51.194;6.614;2024-02-04T08:25:01;11.80;99.90
5278;DHT22;2662;51.194;6.614;2024-02-04T08:27:30;11.80;99.90
5278;DHT22;2662;51.194;6.614;2024-02-04T08:29:57;11.90;99.90
5278;DHT22;2662;51.194;6.614;2024-02-04T08:32:25;11.90;99.90
5278;DHT22;2662;51.194;6.614;2024-02-04T08:34:54;11.90;99.90
5278;DHT22;2662;51.194;6.614;2024-02-04T08:37:21;11.90;99.90
5278;DHT22;2662;51.194;6.614;2024-02-04T08:39:49;11.90;99.90
5278;DHT22;2662;51.194;6.614;2024-02-04T08:42:16;11.90;99.90
5278;DHT22;2662;51.194;6.614;2024-02-04T08:44:44;11.90;99.90
5278;DHT22;2662;51.194;6.614;2024-02-04T08:47:11;12.00;99.90
5278;DHT22;2662;51.194;6.614;2024-02-04T08:49:40;12.00;99.90
5278;DHT22;2662;51.194;6.614;2024-02-04T08:52:07;12.10;99.90
5278;DHT22;2662;51.194;6.614;2024-02-04T08:54:34;12.10;99.90
5278;DHT22;2662;51.194;6.614;2024-02-04T08:57:00;12.10;99.90
5278;DHT22;2662;51.194;6.614;2024-02-04T08:59:28;12.10;99.90
5278;DHT22;2662;51.194;6.614;2024-02-04T09:01:56;12.00;99.90
5278;DHT22;2662;51.194;6.614;2024-02-04T09:04:24;12.00;99.90
5278;DHT22;2662;51.194;6.614;2024-02-04T09:06:50;11.90;99.90
5278;DHT22;2662;51.194;6.614;2024-02-04T09:09:18;11.90;99.90
5278;DHT22;2662;51.194;6.614;2024-02-04T09:11:48;11.90;99.90
5278;DHT22;2662;51.194;6.614;2024-02-04T09:14:20;11.90;99.90
5278;DHT22;2662;51.194;6.614;2024-02-04T09:16:47;11.90;99.90
5278;DHT22;2662;51.194;6.614;2024-02-04T09:19:15;12.00;99.90
5278;DHT22;2662;51.194;6.614;2024-02-04T09:21:43;12.00;99.90
5278;DHT22;2662;51.194;6.614;2024-02-04T09:24:10;12.00;99.90
5278;DHT22;2662;51.194;6.614;2024-02-04T09:26:37;12.00;99.90
5278;DHT22;2662;51.194;6.614;2024-02-04T09:29:05;12.00;99.90
5278;DHT22;2662;51.194;6.614;2024-02-04T09:31:32;12.00;99.90
5278;DHT22;2662;51.194;6.614;2024-02-04T09:34:01;12.10;99.90
5278;DHT22;2662;51.194;6.614;2024-02-04T09:36:32;12.20;99.90
5278;DHT22;2662;51.194;6.614;2024-02-04T09:39:01;12.30;99.90
5278;DHT22;2662;51.194;6.614;2024-02-04T09:41:29;12.40;99.90
5278;DHT22;2662;51.194;6.614;2024-02-04T09:43:58;12.40;99.90
5278;DHT22;2662;51.194;6.614;2024-02-04T09:46:27;12.40;99.90
5278;DHT22;2662;51.194;6.614;2024-02-04T09:48:55;12.40;99.90
5278;DHT22;2662;51.194;6.614;2024-02-04T09:51:22;12.40;99.90
5278;DHT22;2662;51.194;6.614;2024-02-04T09:53:53;12.40;99.90
5278;DHT22;2662;51.194;6.614;2024-02-04T09:56:22;12.40;99.90
5278;DHT22;2662;51.194;6.614;2024-02-04T09:58:52;12.40;99.90
5278;DHT22;2662;51.194;6.614;2024-02-04T10:01:26;12.40;99.90
5278;DHT22;2662;51.194;6.614;2024-02-04T10:03:53;12.40;99.90
5278;DHT22;2662;51.194;6.614;2024-02-04T10:06:21;12.40;99.90
5278;DHT22;2662;51.194;6.614;2024-02-04T10:08:52;12.50;99.90
5278;DHT22;2662;51.194;6.614;2024-02-04T10:11:20;12.60;99.90
5278;DHT22;2662;51.194;6.614;2024-02-04T10:13:49;12.60;99.90
5278;DHT22;2662;51.194;6.614;2024-02-04T10:16:19;12.70;99.90
5278;DHT22;2662;51.194;6.614;2024-02-04T10:18:47;12.80;99.90
5278;DHT22;2662;51.194;6.614;2024-02-04T10:21:17;12.90;99.90
5278;DHT22;2662;51.194;6.614;2024-02-04T10:23:45;12.80;99.90
5278;DHT22;2662;51.194;6.614;2024-02-04T10:26:15;12.90;99.90
5278;DHT22;2662;51.194;6.614;2024-02-04T10:28:44;13.00;99.90
5278;DHT22;2662;51.194;6.614;2024-02-04T10:31:14;13.00;99.90
5278;DHT22;2662;51.194;6.614;2024-02-04T10:33:43;12.90;99.90
5278;DHT22;2662;51.194;6.614;2024-02-04T10:36:11;12.80;99.90
5278;DHT22;2662;51.194;6.614;2024-02-04T10:38:39;12.80;99.90
5278;DHT22;2662;51.194;6.614;2024-02-04T10:41:06;12.80;99.90
5278;DHT22;2662;51.194;6.614;2024-02-04T10:43:35;12.80;99.90
5278;DHT22;2662;51.194;6.614;2024-02-04T10:46:09;12.80;99.90
5278;DHT22;2662;51.194;6.614;2024-02-04T10:48:42;12.90;99.90
5278;DHT22;2662;51.194;6.614;2024-02-04T10:51:13;13.10;99.90
5278;DHT22;2662;51.194;6.614;2024-02-04T10:53:42;13.10;99.90
5278;DHT22;2662;51.194;6.614;2024-02-04T10:56:13;13.10;99.90
5278;DHT22;2662;51.194;6.614;2024-02-04T10:58:43;13.10;99.90
5278;DHT22;2662;51.194;6.614;2024-02-04T11:01:12;13.10;99.90
5278;DHT22;2662;51.194;6.614;2024-02-04T11:03:41;12.90;99.90
5278;DHT22;2662;51.194;6.614;2024-02-04T11:06:08;12.80;99.90
5278;DHT22;2662;51.194;6.614;2024-02-04T11:08:38;12.70;99.90
5278;DHT22;2662;51.194;6.614;2024-02-04T11:11:08;12.70;99.90
5278;DHT22;2662;51.194;6.614;2024-02-04T11:13:37;12.70;99.90
5278;DHT22;2662;51.194;6.614;2024-02-04T11:16:10;12.60;99.90
5278;DHT22;2662;51.194;6.614;2024-02-04T11:18:58;12.60;99.90
5278;DHT22;2662;51.194;6.614;2024-02-04T11:21:44;12.50;99.90
5278;DHT22;2662;51.194;6.614;2024-02-04T11:24:27;12.60;99.90
5278;DHT22;2662;51.194;6.614;2024-02-04T11:26:57;12.60;99.90
5278;DHT22;2662;51.194;6.614;2024-02-04T11:29:25;12.70;99.90
5278;DHT22;2662;51.194;6.614;2024-02-04T11:31:54;12.90;99.90
5278;DHT22;2662;51.194;6.614;2024-02-04T11:34:22;13.00;99.90
5278;DHT22;2662;51.194;6.614;2024-02-04T11:36:50;13.20;99.90
5278;DHT22;2662;51.194;6.614;2024-02-04T11:39:18;13.30;99.90
5278;DHT22;2662;51.194;6.614;2024-02-04T11:41:51;13.20;99.90
5278;DHT22;2662;51.194;6.614;2024-02-04T11:44:21;13.10;99.90
5278;DHT22;2662;51.194;6.614;2024-02-04T11:46:48;13.10;99.90
5278;DHT22;2662;51.194;6.614;2024-02-04T11:49:20;13.10;99.90
5278;DHT22;2662;51.194;6.614;2024-02-04T11:51:51;13.00;99.90
5278;DHT22;2662;51.194;6.614;2024-02-04T11:54:20;12.90;99.90
5278;DHT22;2662;51.194;6.614;2024-02-04T11:56:49;13.00;99.90
5278;DHT22;2662;51.194;6.614;2024-02-04T11:59:19;13.00;99.90
5278;DHT22;2662;51.194;6.614;2024-02-04T12:01:48;12.90;99.90
5278;DHT22;2662;51.194;6.614;2024-02-04T12:04:27;13.00;99.90
5278;DHT22;2662;51.194;6.614;2024-02-04T12:06:55;13.00;99.90
5278;DHT22;2662;51.194;6.614;2024-02-04T12:09:26;13.00;99.90
5278;DHT22;2662;51.194;6.614;2024-02-04T12:11:54;12.90;99.90
5278;DHT22;2662;51.194;6.614;2024-02-04T12:14:21;13.00;99.90
5278;DHT22;2662;51.194;6.614;2024-02-04T12:16:50;13.00;99.90
5278;DHT22;2662;51.194;6.614;2024-02-04T12:19:17;13.00;99.90
5278;DHT22;2662;51.194;6.614;2024-02-04T12:21:50;13.00;99.90
5278;DHT22;2662;51.194;6.614;2024-02-04T12:24:20;13.00;99.90
5278;DHT22;2662;51.194;6.614;2024-02-04T12:26:46;13.00;99.90
5278;DHT22;2662;51.194;6.614;2024-02-04T12:29:13;13.00;99.90
5278;DHT22;2662;51.194;6.614;2024-02-04T12:31:40;12.90;99.90
5278;DHT22;2662;51.194;6.614;2024-02-04T12:34:08;12.80;99.90
5278;DHT22;2662;51.194;6.614;2024-02-04T12:36:37;12.80;99.90
5278;DHT22;2662;51.194;6.614;2024-02-04T12:39:06;12.80;99.90
5278;DHT22;2662;51.194;6.614;2024-02-04T12:41:38;12.80;99.90
5278;DHT22;2662;51.194;6.614;2024-02-04T12:44:07;12.80;99.90
5278;DHT22;2662;51.194;6.614;2024-02-04T12:46:35;12.80;99.90
5278;DHT22;2662;51.194;6.614;2024-02-04T12:49:02;12.90;99.90
5278;DHT22;2662;51.194;6.614;2024-02-04T12:51:32;13.00;99.90
5278;DHT22;2662;51.194;6.614;2024-02-04T12:54:09;13.00;99.90
5278;DHT22;2662;51.194;6.614;2024-02-04T12:56:44;13.00;99.90
5278;DHT22;2662;51.194;6.614;2024-02-04T12:59:11;13.00;99.90
5278;DHT22;2662;51.194;6.614;2024-02-04T13:01:39;13.00;99.90
5278;DHT22;2662;51.194;6.614;2024-02-04T13:04:07;13.10;99.90
5278;DHT22;2662;51.194;6.614;2024-02-04T13:06:38;13.00;99.90
5278;DHT22;2662;51.194;6.614;2024-02-04T13:09:05;12.90;99.90
5278;DHT22;2662;51.194;6.614;2024-02-04T13:11:36;12.90;99.90
5278;DHT22;2662;51.194;6.614;2024-02-04T13:14:03;12.80;99.90
5278;DHT22;2662;51.194;6.614;2024-02-04T13:16:30;12.90;99.90
5278;DHT22;2662;51.194;6.614;2024-02-04T13:18:58;12.90;99.90
5278;DHT22;2662;51.194;6.614;2024-02-04T13:21:25;13.00;99.90
5278;DHT22;2662;51.194;6.614;2024-02-04T13:23:52;13.10;99.90
5278;DHT22;2662;51.194;6.614;2024-02-04T13:26:21;13.10;99.90
5278;DHT22;2662;51.194;6.614;2024-02-04T13:28:49;13.10;99.90
5278;DHT22;2662;51.194;6.614;2024-02-04T13:31:16;13.10;99.90
5278;DHT22;2662;51.194;6.614;2024-02-04T13:33:43;13.10;99.90
5278;DHT22;2662;51.194;6.614;2024-02-04T13:36:13;13.10;99.90
5278;DHT22;2662;51.194;6.614;2024-02-04T13:38:40;13.00;99.90
5278;DHT22;2662;51.194;6.614;2024-02-04T13:41:07;13.00;99.90
5278;DHT22;2662;51.194;6.614;2024-02-04T13:43:35;13.00;99.90
5278;DHT22;2662;51.194;6.614;2024-02-04T13:46:06;12.90;99.90
5278;DHT22;2662;51.194;6.614;2024-02-04T13:48:34;12.90;99.90
5278;DHT22;2662;51.194;6.614;2024-02-04T13:51:01;12.80;99.90
5278;DHT22;2662;51.194;6.614;2024-02-04T13:53:30;12.70;99.90
5278;DHT22;2662;51.194;6.614;2024-02-04T13:56:01;12.70;99.90
5278;DHT22;2662;51.194;6.614;2024-02-04T13:58:28;12.70;99.90
5278;DHT22;2662;51.194;6.614;2024-02-04T14:00:55;12.60;99.90
5278;DHT22;2662;51.194;6.614;2024-02-04T14:03:23;12.60;99.90
5278;DHT22;2662;51.194;6.614;2024-02-04T14:05:50;12.60;99.90
5278;DHT22;2662;51.194;6.614;2024-02-04T14:08:19;12.70;99.90
5278;DHT22;2662;51.194;6.614;2024-02-04T14:10:51;12.60;99.90
5278;DHT22;2662;51.194;6.614;2024-02-04T14:13:18;12.50;99.90
5278;DHT22;2662;51.194;6.614;2024-02-04T14:15:45;12.60;99.90
5278;DHT22;2662;51.194;6.614;2024-02-04T14:18:13;12.50;99.90
5278;DHT22;2662;51.194;6.614;2024-02-04T14:20:41;12.50;99.90
5278;DHT22;2662;51.194;6.614;2024-02-04T14:23:08;12.50;99.90
5278;DHT22;2662;51.194;6.614;2024-02-04T14:25:37;12.60;99.90
5278;DHT22;2662;51.194;6.614;2024-02-04T14:28:04;12.60;99.90
5278;DHT22;2662;51.194;6.614;2024-02-04T14:30:31;12.60;99.90
5278;DHT22;2662;51.194;6.614;2024-02-04T14:32:59;12.60;99.90
5278;DHT22;2662;51.194;6.614;2024-02-04T14:35:26;12.60;99.90
5278;DHT22;2662;51.194;6.614;2024-02-04T14:37:54;12.50;99.90
5278;DHT22;2662;51.194;6.614;2024-02-04T14:40:22;12.50;99.90
5278;DHT22;2662;51.194;6.614;2024-02-04T14:42:55;12.50;99.90
5278;DHT22;2662;51.194;6.614;2024-02-04T14:45:22;12.60;99.90
5278;DHT22;2662;51.194;6.614;2024-02-04T14:47:49;12.60;99.90
5278;DHT22;2662;51.194;6.614;2024-02-04T14:50:19;12.60;99.90
5278;DHT22;2662;51.194;6.614;2024-02-04T14:52:47;12.60;99.90
5278;DHT22;2662;51.194;6.614;2024-02-04T14:55:17;12.60;99.90
5278;DHT22;2662;51.194;6.614;2024-02-04T14:57:43;12.60;99.90
5278;DHT22;2662;51.194;6.614;2024-02-04T15:00:12;12.60;99.90
5278;DHT22;2662;51.194;6.614;2024-02-04T15:02:40;12.60;99.90
5278;DHT22;2662;51.194;6.614;2024-02-04T15:05:08;12.70;99.90
5278;DHT22;2662;51.194;6.614;2024-02-04T15:07:36;12.60;99.90
5278;DHT22;2662;51.194;6.614;2024-02-04T15:10:04;12.60;99.90
5278;DHT22;2662;51.194;6.614;2024-02-04T15:12:33;12.60;99.90
5278;DHT22;2662;51.194;6.614;2024-02-04T15:15:01;12.60;99.90
5278;DHT22;2662;51.194;6.614;2024-02-04T15:17:29;12.60;99.90
5278;DHT22;2662;51.194;6.614;2024-02-04T15:19:57;12.60;99.90
5278;DHT22;2662;51.194;6.614;2024-02-04T15:22:24;12.70;99.90
5278;DHT22;2662;51.194;6.614;2024-02-04T15:24:52;12.60;99.90
5278;DHT22;2662;51.194;6.614;2024-02-04T15:27:20;12.60;99.90
5278;DHT22;2662;51.194;6.614;2024-02-04T15:29:49;12.60;99.90
5278;DHT22;2662;51.194;6.614;2024-02-04T15:32:18;12.60;99.90
5278;DHT22;2662;51.194;6.614;2024-02-04T15:34:45;12.60;99.90
5278;DHT22;2662;51.194;6.614;2024-02-04T15:37:12;12.60;99.90
5278;DHT22;2662;51.194;6.614;2024-02-04T15:39:41;12.60;99.90
5278;DHT22;2662;51.194;6.614;2024-02-04T15:42:09;12.50;99.90
5278;DHT22;2662;51.194;6.614;2024-02-04T15:44:38;12.50;99.90
5278;DHT22;2662;51.194;6.614;2024-02-04T15:47:08;12.50;99.90
5278;DHT22;2662;51.194;6.614;2024-02-04T15:49:36;12.50;99.90
5278;DHT22;2662;51.194;6.614;2024-02-04T15:52:04;12.50;99.90
5278;DHT22;2662;51.194;6.614;2024-02-04T15:54:32;12.60;99.90
5278;DHT22;2662;51.194;6.614;2024-02-04T15:57:05;12.60;99.90
5278;DHT22;2662;51.194;6.614;2024-02-04T15:59:52;12.50;99.90
5278;DHT22;2662;51.194;6.614;2024-02-04T16:02:24;12.50;99.90
5278;DHT22;2662;51.194;6.614;2024-02-04T16:04:52;12.40;99.90
5278;DHT22;2662;51.194;6.614;2024-02-04T16:07:22;12.40;99.90
5278;DHT22;2662;51.194;6.614;2024-02-04T16:09:50;12.40;99.90
5278;DHT22;2662;51.194;6.614;2024-02-04T16:12:20;12.40;99.90